sensor_id;sensor_type;location;lat;lon;timestamp;temperature;humidity
44166;DHT22;30476;53.468;9.826;2024-01-06T00:01:41;1.80;99.90
44166;DHT22;30476;53.468;9.826;2024-01-06T00:04:07;1.80;99.90
44166;DHT22;30476;53.468;9.826;2024-01-06T00:06:33;1.80;99.90
44166;DHT22;30476;53.468;9.826;2024-01-06T00:08:58;1.80;99.90
44166;DHT22;30476;53.468;9.826;2024-01-06T00:11:24;1.80;99.90
44166;DHT22;30476;53.468;9.826;2024-01-06T00:13:50;1.80;99.90
44166;DHT22;30476;53.468;9.826;2024-01-06T00:16:17;1.80;99.90
44166;DHT22;30476;53.468;9.826;2024-01-06T00:18:45;1.80;99.90
44166;DHT22;30476;53.468;9.826;2024-01-06T00:21:10;1.80;99.90
44166;DHT22;30476;53.468;9.826;2024-01-06T00:23:36;1.80;99.90
44166;DHT22;30476;53.468;9.826;2024-01-06T00:26:03;1.80;99.90
44166;DHT22;30476;53.468;9.826;2024-01-06T00:28:29;1.80;99.90
44166;DHT22;30476;53.468;9.826;2024-01-06T00:30:55;1.80;99.90
44166;DHT22;30476;53.468;9.826;2024-01-06T00:33:21;1.80;99.90
44166;DHT22;30476;53.468;9.826;2024-01-06T00:35:46;1.80;99.90
44166;DHT22;30476;53.468;9.826;2024-01-06T00:38:12;1.80;99.90
44166;DHT22;30476;53.468;9.826;2024-01-06T00:40:38;1.80;99.90
44166;DHT22;30476;53.468;9.826;2024-01-06T00:43:04;1.70;99.90
44166;DHT22;30476;53.468;9.826;2024-01-06T00:45:30;1.80;99.90
44166;DHT22;30476;53.468;9.826;2024-01-06T00:47:57;1.80;99.90
44166;DHT22;30476;53.468;9.826;2024-01-06T00:50:23;1.80;99.90
44166;DHT22;30476;53.468;9.826;2024-01-06T00:52:49;1.80;99.90
44166;DHT22;30476;53.468;9.826;2024-01-06T00:55:19;1.70;99.90
44166;DHT22;30476;53.468;9.826;2024-01-06T00:57:44;1.80;99.90
44166;DHT22;30476;53.468;9.826;2024-01-06T01:00:11;1.80;99.90
44166;DHT22;30476;53.468;9.826;2024-01-06T01:02:37;1.80;99.90
44166;DHT22;30476;53.468;9.826;2024-01-06T01:05:03;1.80;99.90
44166;DHT22;30476;53.468;9.826;2024-01-06T01:07:29;1.80;99.90
44166;DHT22;30476;53.468;9.826;2024-01-06T01:09:54;1.70;99.90
44166;DHT22;30476;53.468;9.826;2024-01-06T01:12:23;1.70;99.90
44166;DHT22;30476;53.468;9.826;2024-01-06T01:14:49;1.70;99.90
44166;DHT22;30476;53.468;9.826;2024-01-06T01:17:15;1.80;99.90
44166;DHT22;30476;53.468;9.826;2024-01-06T01:19:40;1.80;99.90
44166;DHT22;30476;53.468;9.826;2024-01-06T01:22:06;1.70;99.90
44166;DHT22;30476;53.468;9.826;2024-01-06T01:24:32;1.80;99.90
44166;DHT22;30476;53.468;9.826;2024-01-06T01:26:58;1.60;99.90
44166;DHT22;30476;53.468;9.826;2024-01-06T01:29:24;1.80;99.90
44166;DHT22;30476;53.468;9.826;2024-01-06T01:31:49;1.80;99.90
44166;DHT22;30476;53.468;9.826;2024-01-06T01:34:15;1.80;99.90
44166;DHT22;30476;53.468;9.826;2024-01-06T01:36:41;1.80;99.90
44166;DHT22;30476;53.468;9.826;2024-01-06T01:39:07;1.70;99.90
44166;DHT22;30476;53.468;9.826;2024-01-06T01:41:33;1.80;99.90
44166;DHT22;30476;53.468;9.826;2024-01-06T01:43:58;1.80;99.90
44166;DHT22;30476;53.468;9.826;2024-01-06T01:46:28;1.80;99.90
44166;DHT22;30476;53.468;9.826;2024-01-06T01:48:59;1.80;99.90
44166;DHT22;30476;53.468;9.826;2024-01-06T01:51:34;1.90;99.90
44166;DHT22;30476;53.468;9.826;2024-01-06T01:54:05;1.80;99.90
44166;DHT22;30476;53.468;9.826;2024-01-06T01:56:34;1.90;99.90
44166;DHT22;30476;53.468;9.826;2024-01-06T01:59:06;1.80;99.90
44166;DHT22;30476;53.468;9.826;2024-01-06T02:01:34;1.80;99.90
44166;DHT22;30476;53.468;9.826;2024-01-06T02:04:01;1.80;99.90
44166;DHT22;30476;53.468;9.826;2024-01-06T02:06:27;1.80;99.90
44166;DHT22;30476;53.468;9.826;2024-01-06T02:08:53;1.80;99.90
44166;DHT22;30476;53.468;9.826;2024-01-06T02:11:19;1.70;99.90
44166;DHT22;30476;53.468;9.826;2024-01-06T02:13:45;1.80;99.90
44166;DHT22;30476;53.468;9.826;2024-01-06T02:16:11;1.70;99.90
44166;DHT22;30476;53.468;9.826;2024-01-06T02:18:36;1.70;99.90
44166;DHT22;30476;53.468;9.826;2024-01-06T02:21:02;1.80;99.90
44166;DHT22;30476;53.468;9.826;2024-01-06T02:23:29;1.70;99.90
44166;DHT22;30476;53.468;9.826;2024-01-06T02:25:55;1.80;99.90
44166;DHT22;30476;53.468;9.826;2024-01-06T02:28:21;1.80;99.90
44166;DHT22;30476;53.468;9.826;2024-01-06T02:30:48;1.70;99.90
44166;DHT22;30476;53.468;9.826;2024-01-06T02:33:14;1.80;99.90
44166;DHT22;30476;53.468;9.826;2024-01-06T02:35:40;1.80;99.90
44166;DHT22;30476;53.468;9.826;2024-01-06T02:38:06;1.80;99.90
44166;DHT22;30476;53.468;9.826;2024-01-06T02:40:32;1.80;99.90
44166;DHT22;30476;53.468;9.826;2024-01-06T02:42:59;1.80;99.90
44166;DHT22;30476;53.468;9.826;2024-01-06T02:45:24;1.80;99.90
44166;DHT22;30476;53.468;9.826;2024-01-06T02:47:50;1.80;99.90
44166;DHT22;30476;53.468;9.826;2024-01-06T02:50:16;1.80;99.90
44166;DHT22;30476;53.468;9.826;2024-01-06T02:52:43;1.80;99.90
44166;DHT22;30476;53.468;9.826;2024-01-06T02:55:09;1.80;99.90
44166;DHT22;30476;53.468;9.826;2024-01-06T02:57:35;1.80;99.90
44166;DHT22;30476;53.468;9.826;2024-01-06T03:00:01;1.80;99.90
44166;DHT22;30476;53.468;9.826;2024-01-06T03:02:27;1.80;99.90
44166;DHT22;30476;53.468;9.826;2024-01-06T03:04:53;1.70;99.90
44166;DHT22;30476;53.468;9.826;2024-01-06T03:07:19;1.70;99.90
44166;DHT22;30476;53.468;9.826;2024-01-06T03:09:44;1.70;99.90
44166;DHT22;30476;53.468;9.826;2024-01-06T03:12:10;1.70;99.90
44166;DHT22;30476;53.468;9.826;2024-01-06T03:14:36;1.80;99.90
44166;DHT22;30476;53.468;9.826;2024-01-06T03:17:02;1.70;99.90
44166;DHT22;30476;53.468;9.826;2024-01-06T03:19:29;1.70;99.90
44166;DHT22;30476;53.468;9.826;2024-01-06T03:21:54;1.70;99.90
44166;DHT22;30476;53.468;9.826;2024-01-06T03:24:25;1.70;99.90
44166;DHT22;30476;53.468;9.826;2024-01-06T03:26:51;1.70;99.90
44166;DHT22;30476;53.468;9.826;2024-01-06T03:29:17;1.80;99.90
44166;DHT22;30476;53.468;9.826;2024-01-06T03:31:43;1.70;99.90
44166;DHT22;30476;53.468;9.826;2024-01-06T03:34:09;1.70;99.90
44166;DHT22;30476;53.468;9.826;2024-01-06T03:36:37;1.70;99.90
44166;DHT22;30476;53.468;9.826;2024-01-06T03:39:03;1.70;99.90
44166;DHT22;30476;53.468;9.826;2024-01-06T03:41:29;1.70;99.90
44166;DHT22;30476;53.468;9.826;2024-01-06T03:43:55;1.70;99.90
44166;DHT22;30476;53.468;9.826;2024-01-06T03:46:21;1.70;99.90
44166;DHT22;30476;53.468;9.826;2024-01-06T03:48:47;1.60;99.90
44166;DHT22;30476;53.468;9.826;2024-01-06T03:51:13;1.60;99.90
44166;DHT22;30476;53.468;9.826;2024-01-06T03:53:39;1.70;99.90
44166;DHT22;30476;53.468;9.826;2024-01-06T03:56:06;1.60;99.90
44166;DHT22;30476;53.468;9.826;2024-01-06T03:58:32;1.60;99.90
44166;DHT22;30476;53.468;9.826;2024-01-06T04:00:58;1.60;99.90
44166;DHT22;30476;53.468;9.826;2024-01-06T04:03:24;1.60;99.90
44166;DHT22;30476;53.468;9.826;2024-01-06T04:05:49;1.60;99.90
44166;DHT22;30476;53.468;9.826;2024-01-06T04:08:15;1.70;99.90
44166;DHT22;30476;53.468;9.826;2024-01-06T04:10:41;1.70;99.90
44166;DHT22;30476;53.468;9.826;2024-01-06T04:13:07;1.70;99.90
44166;DHT22;30476;53.468;9.826;2024-01-06T04:15:33;1.70;99.90
44166;DHT22;30476;53.468;9.826;2024-01-06T04:18:02;1.70;99.90
44166;DHT22;30476;53.468;9.826;2024-01-06T04:20:29;1.70;99.90
44166;DHT22;30476;53.468;9.826;2024-01-06T04:22:55;1.80;99.90
44166;DHT22;30476;53.468;9.826;2024-01-06T04:25:21;1.70;99.90
44166;DHT22;30476;53.468;9.826;2024-01-06T04:27:47;1.70;99.90
44166;DHT22;30476;53.468;9.826;2024-01-06T04:30:15;1.70;99.90
44166;DHT22;30476;53.468;9.826;2024-01-06T04:32:41;1.70;99.90
44166;DHT22;30476;53.468;9.826;2024-01-06T04:35:07;1.70;99.90
44166;DHT22;30476;53.468;9.826;2024-01-06T04:37:33;1.60;99.90
44166;DHT22;30476;53.468;9.826;2024-01-06T04:39:59;1.70;99.90
44166;DHT22;30476;53.468;9.826;2024-01-06T04:42:24;1.70;99.90
44166;DHT22;30476;53.468;9.826;2024-01-06T04:44:50;1.70;99.90
44166;DHT22;30476;53.468;9.826;2024-01-06T04:47:16;1.70;99.90
44166;DHT22;30476;53.468;9.826;2024-01-06T04:49:43;1.70;99.90
44166;DHT22;30476;53.468;9.826;2024-01-06T04:52:10;1.70;99.90
44166;DHT22;30476;53.468;9.826;2024-01-06T04:54:36;1.70;99.90
44166;DHT22;30476;53.468;9.826;2024-01-06T04:57:02;1.70;99.90
44166;DHT22;30476;53.468;9.826;2024-01-06T04:59:28;1.70;99.90
44166;DHT22;30476;53.468;9.826;2024-01-06T05:01:54;1.70;99.90
44166;DHT22;30476;53.468;9.826;2024-01-06T05:04:20;1.70;99.90
44166;DHT22;30476;53.468;9.826;2024-01-06T05:06:46;1.70;99.90
44166;DHT22;30476;53.468;9.826;2024-01-06T05:09:12;1.70;99.90
44166;DHT22;30476;53.468;9.826;2024-01-06T05:11:37;1.70;99.90
44166;DHT22;30476;53.468;9.826;2024-01-06T05:14:03;1.70;99.90
44166;DHT22;30476;53.468;9.826;2024-01-06T05:16:29;1.70;99.90
44166;DHT22;30476;53.468;9.826;2024-01-06T05:18:55;1.70;99.90
44166;DHT22;30476;53.468;9.826;2024-01-06T05:21:20;1.70;99.90
44166;DHT22;30476;53.468;9.826;2024-01-06T05:23:46;1.70;99.90
44166;DHT22;30476;53.468;9.826;2024-01-06T05:26:12;1.70;99.90
44166;DHT22;30476;53.468;9.826;2024-01-06T05:28:39;1.70;99.90
44166;DHT22;30476;53.468;9.826;2024-01-06T05:31:06;1.70;99.90
44166;DHT22;30476;53.468;9.826;2024-01-06T05:33:32;1.70;99.90
44166;DHT22;30476;53.468;9.826;2024-01-06T05:35:57;1.70;99.90
44166;DHT22;30476;53.468;9.826;2024-01-06T05:38:23;1.70;99.90
44166;DHT22;30476;53.468;9.826;2024-01-06T05:40:49;1.70;99.90
44166;DHT22;30476;53.468;9.826;2024-01-06T05:43:15;1.70;99.90
44166;DHT22;30476;53.468;9.826;2024-01-06T05:45:41;1.70;99.90
44166;DHT22;30476;53.468;9.826;2024-01-06T05:48:11;1.70;99.90
44166;DHT22;30476;53.468;9.826;2024-01-06T05:50:40;1.70;99.90
44166;DHT22;30476;53.468;9.826;2024-01-06T05:53:06;1.70;99.90
44166;DHT22;30476;53.468;9.826;2024-01-06T05:55:33;1.70;99.90
44166;DHT22;30476;53.468;9.826;2024-01-06T05:57:59;1.70;99.90
44166;DHT22;30476;53.468;9.826;2024-01-06T06:00:25;1.70;99.90
44166;DHT22;30476;53.468;9.826;2024-01-06T06:02:50;1.70;99.90
44166;DHT22;30476;53.468;9.826;2024-01-06T06:05:16;1.70;99.90
44166;DHT22;30476;53.468;9.826;2024-01-06T06:07:42;1.70;99.90
44166;DHT22;30476;53.468;9.826;2024-01-06T06:10:10;1.70;99.90
44166;DHT22;30476;53.468;9.826;2024-01-06T06:12:37;1.70;99.90
44166;DHT22;30476;53.468;9.826;2024-01-06T06:15:04;1.70;99.90
44166;DHT22;30476;53.468;9.826;2024-01-06T06:17:33;1.70;99.90
44166;DHT22;30476;53.468;9.826;2024-01-06T06:19:59;1.70;99.90
44166;DHT22;30476;53.468;9.826;2024-01-06T06:22:26;1.70;99.90
44166;DHT22;30476;53.468;9.826;2024-01-06T06:25:00;1.70;99.90
44166;DHT22;30476;53.468;9.826;2024-01-06T06:27:26;1.70;99.90
44166;DHT22;30476;53.468;9.826;2024-01-06T06:29:53;1.60;99.90
44166;DHT22;30476;53.468;9.826;2024-01-06T06:32:19;1.60;99.90
44166;DHT22;30476;53.468;9.826;2024-01-06T06:34:45;1.60;99.90
44166;DHT22;30476;53.468;9.826;2024-01-06T06:37:10;1.60;99.90
44166;DHT22;30476;53.468;9.826;2024-01-06T06:39:36;1.60;99.90
44166;DHT22;30476;53.468;9.826;2024-01-06T06:42:02;1.50;99.90
44166;DHT22;30476;53.468;9.826;2024-01-06T06:44:28;1.60;99.90
44166;DHT22;30476;53.468;9.826;2024-01-06T06:46:55;1.60;99.90
44166;DHT22;30476;53.468;9.826;2024-01-06T06:49:21;1.50;99.90
44166;DHT22;30476;53.468;9.826;2024-01-06T06:51:47;1.50;99.90
44166;DHT22;30476;53.468;9.826;2024-01-06T06:54:14;1.60;99.90
44166;DHT22;30476;53.468;9.826;2024-01-06T06:56:44;1.60;99.90
44166;DHT22;30476;53.468;9.826;2024-01-06T06:59:10;1.50;99.90
44166;DHT22;30476;53.468;9.826;2024-01-06T07:01:37;1.60;99.90
44166;DHT22;30476;53.468;9.826;2024-01-06T07:04:02;1.60;99.90
44166;DHT22;30476;53.468;9.826;2024-01-06T07:06:29;1.60;99.90
44166;DHT22;30476;53.468;9.826;2024-01-06T07:08:56;1.50;99.90
44166;DHT22;30476;53.468;9.826;2024-01-06T07:11:21;1.60;99.90
44166;DHT22;30476;53.468;9.826;2024-01-06T07:13:47;1.60;99.90
44166;DHT22;30476;53.468;9.826;2024-01-06T07:16:13;1.60;99.90
44166;DHT22;30476;53.468;9.826;2024-01-06T07:18:39;1.60;99.90
44166;DHT22;30476;53.468;9.826;2024-01-06T07:21:05;1.50;99.90
44166;DHT22;30476;53.468;9.826;2024-01-06T07:23:34;1.60;99.90
44166;DHT22;30476;53.468;9.826;2024-01-06T07:26:00;1.50;99.90
44166;DHT22;30476;53.468;9.826;2024-01-06T07:28:26;1.50;99.90
44166;DHT22;30476;53.468;9.826;2024-01-06T07:30:52;1.50;99.90
44166;DHT22;30476;53.468;9.826;2024-01-06T07:33:18;1.50;99.90
44166;DHT22;30476;53.468;9.826;2024-01-06T07:35:44;1.50;99.90
44166;DHT22;30476;53.468;9.826;2024-01-06T07:38:11;1.50;99.90
44166;DHT22;30476;53.468;9.826;2024-01-06T07:40:37;1.50;99.90
44166;DHT22;30476;53.468;9.826;2024-01-06T07:43:03;1.40;99.90
44166;DHT22;30476;53.468;9.826;2024-01-06T07:45:30;1.50;99.90
44166;DHT22;30476;53.468;9.826;2024-01-06T07:47:55;1.40;99.90
44166;DHT22;30476;53.468;9.826;2024-01-06T07:50:21;1.40;99.90
44166;DHT22;30476;53.468;9.826;2024-01-06T07:52:46;1.40;99.90
44166;DHT22;30476;53.468;9.826;2024-01-06T07:55:12;1.40;99.90
44166;DHT22;30476;53.468;9.826;2024-01-06T07:57:38;1.40;99.90
44166;DHT22;30476;53.468;9.826;2024-01-06T08:00:05;1.40;99.90
44166;DHT22;30476;53.468;9.826;2024-01-06T08:02:30;1.40;99.90
44166;DHT22;30476;53.468;9.826;2024-01-06T08:04:56;1.30;99.90
44166;DHT22;30476;53.468;9.826;2024-01-06T08:07:22;1.30;99.90
44166;DHT22;30476;53.468;9.826;2024-01-06T08:09:48;1.40;99.90
44166;DHT22;30476;53.468;9.826;2024-01-06T08:12:15;1.30;99.90
44166;DHT22;30476;53.468;9.826;2024-01-06T08:14:41;1.30;99.90
44166;DHT22;30476;53.468;9.826;2024-01-06T08:17:07;1.40;99.90
44166;DHT22;30476;53.468;9.826;2024-01-06T08:19:33;1.40;99.90
44166;DHT22;30476;53.468;9.826;2024-01-06T08:21:59;1.30;99.90
44166;DHT22;30476;53.468;9.826;2024-01-06T08:24:25;1.40;99.90
44166;DHT22;30476;53.468;9.826;2024-01-06T08:26:50;1.40;99.90
44166;DHT22;30476;53.468;9.826;2024-01-06T08:29:16;1.30;99.90
44166;DHT22;30476;53.468;9.826;2024-01-06T08:31:45;1.40;99.90
44166;DHT22;30476;53.468;9.826;2024-01-06T08:34:10;1.40;99.90
44166;DHT22;30476;53.468;9.826;2024-01-06T08:36:36;1.40;99.90
44166;DHT22;30476;53.468;9.826;2024-01-06T08:39:02;1.50;99.90
44166;DHT22;30476;53.468;9.826;2024-01-06T08:41:28;1.50;99.90
44166;DHT22;30476;53.468;9.826;2024-01-06T08:43:53;1.50;99.90
44166;DHT22;30476;53.468;9.826;2024-01-06T08:46:19;1.50;99.90
44166;DHT22;30476;53.468;9.826;2024-01-06T08:48:45;1.50;99.90
44166;DHT22;30476;53.468;9.826;2024-01-06T08:51:11;1.50;99.90
44166;DHT22;30476;53.468;9.826;2024-01-06T08:53:37;1.60;99.90
44166;DHT22;30476;53.468;9.826;2024-01-06T08:56:03;1.50;99.90
44166;DHT22;30476;53.468;9.826;2024-01-06T08:58:29;1.50;99.90
44166;DHT22;30476;53.468;9.826;2024-01-06T09:00:55;1.50;99.90
44166;DHT22;30476;53.468;9.826;2024-01-06T09:03:21;1.60;99.90
44166;DHT22;30476;53.468;9.826;2024-01-06T09:05:56;1.60;99.90
44166;DHT22;30476;53.468;9.826;2024-01-06T09:08:23;1.60;99.90
44166;DHT22;30476;53.468;9.826;2024-01-06T09:10:53;1.70;99.90
44166;DHT22;30476;53.468;9.826;2024-01-06T09:13:23;1.70;99.90
44166;DHT22;30476;53.468;9.826;2024-01-06T09:15:53;1.60;99.90
44166;DHT22;30476;53.468;9.826;2024-01-06T09:18:19;1.60;99.90
44166;DHT22;30476;53.468;9.826;2024-01-06T09:20:45;1.70;99.90
44166;DHT22;30476;53.468;9.826;2024-01-06T09:23:13;1.70;99.90
44166;DHT22;30476;53.468;9.826;2024-01-06T09:25:39;1.70;99.90
44166;DHT22;30476;53.468;9.826;2024-01-06T09:28:08;1.70;99.90
44166;DHT22;30476;53.468;9.826;2024-01-06T09:30:34;1.60;99.90
44166;DHT22;30476;53.468;9.826;2024-01-06T09:33:00;1.60;99.90
44166;DHT22;30476;53.468;9.826;2024-01-06T09:35:25;1.60;99.90
44166;DHT22;30476;53.468;9.826;2024-01-06T09:37:51;1.70;99.90
44166;DHT22;30476;53.468;9.826;2024-01-06T09:40:22;1.60;99.90
44166;DHT22;30476;53.468;9.826;2024-01-06T09:42:52;1.60;99.90
44166;DHT22;30476;53.468;9.826;2024-01-06T09:45:19;1.60;99.90
44166;DHT22;30476;53.468;9.826;2024-01-06T09:47:49;1.60;99.90
44166;DHT22;30476;53.468;9.826;2024-01-06T09:50:18;1.60;99.90
44166;DHT22;30476;53.468;9.826;2024-01-06T09:52:45;1.60;99.90
44166;DHT22;30476;53.468;9.826;2024-01-06T09:55:18;1.60;99.90
44166;DHT22;30476;53.468;9.826;2024-01-06T09:57:48;1.50;99.90
44166;DHT22;30476;53.468;9.826;2024-01-06T10:00:14;1.50;99.90
44166;DHT22;30476;53.468;9.826;2024-01-06T10:02:40;1.50;99.90
44166;DHT22;30476;53.468;9.826;2024-01-06T10:05:06;1.50;99.90
44166;DHT22;30476;53.468;9.826;2024-01-06T10:07:33;1.50;99.90
44166;DHT22;30476;53.468;9.826;2024-01-06T10:09:58;1.50;99.90
44166;DHT22;30476;53.468;9.826;2024-01-06T10:12:28;1.50;99.90
44166;DHT22;30476;53.468;9.826;2024-01-06T10:14:54;1.50;99.90
44166;DHT22;30476;53.468;9.826;2024-01-06T10:17:19;1.50;99.90
44166;DHT22;30476;53.468;9.826;2024-01-06T10:19:46;1.50;99.90
44166;DHT22;30476;53.468;9.826;2024-01-06T10:22:13;1.50;99.90
44166;DHT22;30476;53.468;9.826;2024-01-06T10:24:39;1.50;99.90
44166;DHT22;30476;53.468;9.826;2024-01-06T10:27:05;1.50;99.90
44166;DHT22;30476;53.468;9.826;2024-01-06T10:29:32;1.50;99.90
44166;DHT22;30476;53.468;9.826;2024-01-06T10:31:58;1.60;99.90
44166;DHT22;30476;53.468;9.826;2024-01-06T10:34:24;1.50;99.90
44166;DHT22;30476;53.468;9.826;2024-01-06T10:36:51;1.50;99.90
44166;DHT22;30476;53.468;9.826;2024-01-06T10:39:20;1.50;99.90
44166;DHT22;30476;53.468;9.826;2024-01-06T10:41:48;1.50;99.90
44166;DHT22;30476;53.468;9.826;2024-01-06T10:44:15;1.50;99.90
44166;DHT22;30476;53.468;9.826;2024-01-06T10:46:41;1.50;99.90
44166;DHT22;30476;53.468;9.826;2024-01-06T10:49:11;1.60;99.90
44166;DHT22;30476;53.468;9.826;2024-01-06T10:51:38;1.60;99.90
44166;DHT22;30476;53.468;9.826;2024-01-06T10:54:05;1.60;99.90
44166;DHT22;30476;53.468;9.826;2024-01-06T10:56:36;1.60;99.90
44166;DHT22;30476;53.468;9.826;2024-01-06T10:59:03;1.60;99.90
44166;DHT22;30476;53.468;9.826;2024-01-06T11:01:29;1.60;99.90
44166;DHT22;30476;53.468;9.826;2024-01-06T11:03:55;1.70;99.90
44166;DHT22;30476;53.468;9.826;2024-01-06T11:06:22;1.70;99.90
44166;DHT22;30476;53.468;9.826;2024-01-06T11:11:18;2.00;99.90
44166;DHT22;30476;53.468;9.826;2024-01-06T11:13:46;2.10;99.90
44166;DHT22;30476;53.468;9.826;2024-01-06T11:16:36;2.20;99.90
44166;DHT22;30476;53.468;9.826;2024-01-06T11:19:02;2.30;99.90
44166;DHT22;30476;53.468;9.826;2024-01-06T11:21:33;2.40;99.90
44166;DHT22;30476;53.468;9.826;2024-01-06T11:24:19;2.50;99.90
44166;DHT22;30476;53.468;9.826;2024-01-06T11:26:51;2.50;99.90
44166;DHT22;30476;53.468;9.826;2024-01-06T11:29:19;2.40;99.90
44166;DHT22;30476;53.468;9.826;2024-01-06T11:32:18;2.30;99.90
44166;DHT22;30476;53.468;9.826;2024-01-06T11:34:54;2.30;99.90
44166;DHT22;30476;53.468;9.826;2024-01-06T11:37:35;2.30;99.90
44166;DHT22;30476;53.468;9.826;2024-01-06T11:42:34;2.20;99.90
44166;DHT22;30476;53.468;9.826;2024-01-06T11:45:05;2.30;99.90
44166;DHT22;30476;53.468;9.826;2024-01-06T11:47:32;2.20;99.90
44166;DHT22;30476;53.468;9.826;2024-01-06T11:49:59;2.10;99.90
44166;DHT22;30476;53.468;9.826;2024-01-06T11:52:27;2.10;99.90
44166;DHT22;30476;53.468;9.826;2024-01-06T11:54:54;2.00;99.90
44166;DHT22;30476;53.468;9.826;2024-01-06T11:57:21;2.00;99.90
44166;DHT22;30476;53.468;9.826;2024-01-06T11:59:48;2.00;99.90
44166;DHT22;30476;53.468;9.826;2024-01-06T12:02:14;2.00;99.90
44166;DHT22;30476;53.468;9.826;2024-01-06T12:04:40;2.00;99.90
44166;DHT22;30476;53.468;9.826;2024-01-06T12:07:07;1.90;99.90
44166;DHT22;30476;53.468;9.826;2024-01-06T12:09:33;1.80;99.90
44166;DHT22;30476;53.468;9.826;2024-01-06T12:12:03;1.80;99.90
44166;DHT22;30476;53.468;9.826;2024-01-06T12:14:31;1.80;99.90
44166;DHT22;30476;53.468;9.826;2024-01-06T12:17:00;1.80;99.90
44166;DHT22;30476;53.468;9.826;2024-01-06T12:19:33;1.80;99.90
44166;DHT22;30476;53.468;9.826;2024-01-06T12:21:59;1.80;99.90
44166;DHT22;30476;53.468;9.826;2024-01-06T12:24:27;1.80;99.90
44166;DHT22;30476;53.468;9.826;2024-01-06T12:26:56;1.80;99.90
44166;DHT22;30476;53.468;9.826;2024-01-06T12:29:25;1.80;99.90
44166;DHT22;30476;53.468;9.826;2024-01-06T12:31:52;1.80;99.90
44166;DHT22;30476;53.468;9.826;2024-01-06T12:34:18;1.70;99.90
44166;DHT22;30476;53.468;9.826;2024-01-06T12:36:44;1.70;99.90
44166;DHT22;30476;53.468;9.826;2024-01-06T12:39:11;1.70;99.90
44166;DHT22;30476;53.468;9.826;2024-01-06T12:41:42;1.70;99.90
44166;DHT22;30476;53.468;9.826;2024-01-06T12:44:08;1.60;99.90
44166;DHT22;30476;53.468;9.826;2024-01-06T12:46:35;1.60;99.90
44166;DHT22;30476;53.468;9.826;2024-01-06T12:49:01;1.60;99.90
44166;DHT22;30476;53.468;9.826;2024-01-06T12:51:28;1.60;99.90
44166;DHT22;30476;53.468;9.826;2024-01-06T12:53:54;1.60;99.90
44166;DHT22;30476;53.468;9.826;2024-01-06T12:56:20;1.60;99.90
44166;DHT22;30476;53.468;9.826;2024-01-06T12:58:46;1.60;99.90
44166;DHT22;30476;53.468;9.826;2024-01-06T13:01:11;1.60;99.90
44166;DHT22;30476;53.468;9.826;2024-01-06T13:03:37;1.60;99.90
44166;DHT22;30476;53.468;9.826;2024-01-06T13:06:03;1.60;99.90
44166;DHT22;30476;53.468;9.826;2024-01-06T13:08:29;1.60;99.90
44166;DHT22;30476;53.468;9.826;2024-01-06T13:10:55;1.60;99.90
44166;DHT22;30476;53.468;9.826;2024-01-06T13:13:21;1.70;99.90
44166;DHT22;30476;53.468;9.826;2024-01-06T13:15:47;1.60;99.90
44166;DHT22;30476;53.468;9.826;2024-01-06T13:18:13;1.70;99.90
44166;DHT22;30476;53.468;9.826;2024-01-06T13:20:39;1.70;99.90
44166;DHT22;30476;53.468;9.826;2024-01-06T13:23:07;1.60;99.90
44166;DHT22;30476;53.468;9.826;2024-01-06T13:25:35;1.60;99.90
44166;DHT22;30476;53.468;9.826;2024-01-06T13:28:01;1.60;99.90
44166;DHT22;30476;53.468;9.826;2024-01-06T13:30:27;1.50;99.90
44166;DHT22;30476;53.468;9.826;2024-01-06T13:32:53;1.50;99.90
44166;DHT22;30476;53.468;9.826;2024-01-06T13:35:23;1.50;99.90
44166;DHT22;30476;53.468;9.826;2024-01-06T13:37:52;1.50;99.90
44166;DHT22;30476;53.468;9.826;2024-01-06T13:40:19;1.50;99.90
44166;DHT22;30476;53.468;9.826;2024-01-06T13:42:48;1.50;99.90
44166;DHT22;30476;53.468;9.826;2024-01-06T13:45:14;1.50;99.90
44166;DHT22;30476;53.468;9.826;2024-01-06T13:47:41;1.50;99.90
44166;DHT22;30476;53.468;9.826;2024-01-06T13:50:14;1.60;99.90
44166;DHT22;30476;53.468;9.826;2024-01-06T13:52:41;1.50;99.90
44166;DHT22;30476;53.468;9.826;2024-01-06T13:55:06;1.60;99.90
44166;DHT22;30476;53.468;9.826;2024-01-06T13:57:34;1.60;99.90
44166;DHT22;30476;53.468;9.826;2024-01-06T14:00:00;1.50;99.90
44166;DHT22;30476;53.468;9.826;2024-01-06T14:02:26;1.50;99.90
44166;DHT22;30476;53.468;9.826;2024-01-06T14:04:52;1.50;99.90
44166;DHT22;30476;53.468;9.826;2024-01-06T14:07:18;1.50;99.90
44166;DHT22;30476;53.468;9.826;2024-01-06T14:09:45;1.60;99.90
44166;DHT22;30476;53.468;9.826;2024-01-06T14:12:11;1.60;99.90
44166;DHT22;30476;53.468;9.826;2024-01-06T14:14:39;1.60;99.90
44166;DHT22;30476;53.468;9.826;2024-01-06T14:17:07;1.50;99.90
44166;DHT22;30476;53.468;9.826;2024-01-06T14:19:33;1.40;99.90
44166;DHT22;30476;53.468;9.826;2024-01-06T14:21:59;1.50;99.90
44166;DHT22;30476;53.468;9.826;2024-01-06T14:24:25;1.50;99.90
44166;DHT22;30476;53.468;9.826;2024-01-06T14:26:55;1.40;99.90
44166;DHT22;30476;53.468;9.826;2024-01-06T14:29:21;1.40;99.90
44166;DHT22;30476;53.468;9.826;2024-01-06T14:31:47;1.40;99.90
44166;DHT22;30476;53.468;9.826;2024-01-06T14:34:14;1.40;99.90
44166;DHT22;30476;53.468;9.826;2024-01-06T14:36:40;1.40;99.90
44166;DHT22;30476;53.468;9.826;2024-01-06T14:39:17;1.50;99.90
44166;DHT22;30476;53.468;9.826;2024-01-06T14:41:42;1.40;99.90
44166;DHT22;30476;53.468;9.826;2024-01-06T14:44:08;1.40;99.90
44166;DHT22;30476;53.468;9.826;2024-01-06T14:46:34;1.40;99.90
44166;DHT22;30476;53.468;9.826;2024-01-06T14:49:03;1.40;99.90
44166;DHT22;30476;53.468;9.826;2024-01-06T14:51:29;1.40;99.90
44166;DHT22;30476;53.468;9.826;2024-01-06T14:53:55;1.40;99.90
44166;DHT22;30476;53.468;9.826;2024-01-06T14:56:23;1.40;99.90
44166;DHT22;30476;53.468;9.826;2024-01-06T14:58:49;1.40;99.90
44166;DHT22;30476;53.468;9.826;2024-01-06T15:01:15;1.50;99.90
44166;DHT22;30476;53.468;9.826;2024-01-06T15:03:40;1.40;99.90
44166;DHT22;30476;53.468;9.826;2024-01-06T15:06:06;1.40;99.90
44166;DHT22;30476;53.468;9.826;2024-01-06T15:08:32;1.40;99.90
44166;DHT22;30476;53.468;9.826;2024-01-06T15:10:58;1.40;99.90
44166;DHT22;30476;53.468;9.826;2024-01-06T15:13:24;1.50;99.90
44166;DHT22;30476;53.468;9.826;2024-01-06T15:15:49;1.40;99.90
44166;DHT22;30476;53.468;9.826;2024-01-06T15:18:19;1.40;99.90
44166;DHT22;30476;53.468;9.826;2024-01-06T15:20:49;1.40;99.90
44166;DHT22;30476;53.468;9.826;2024-01-06T15:23:15;1.40;99.90
44166;DHT22;30476;53.468;9.826;2024-01-06T15:25:41;1.40;99.90
44166;DHT22;30476;53.468;9.826;2024-01-06T15:28:08;1.40;99.90
44166;DHT22;30476;53.468;9.826;2024-01-06T15:30:34;1.40;99.90
44166;DHT22;30476;53.468;9.826;2024-01-06T15:33:00;1.40;99.90
44166;DHT22;30476;53.468;9.826;2024-01-06T15:35:25;1.40;99.90
44166;DHT22;30476;53.468;9.826;2024-01-06T15:37:51;1.40;99.90
44166;DHT22;30476;53.468;9.826;2024-01-06T15:40:17;1.30;99.90
44166;DHT22;30476;53.468;9.826;2024-01-06T15:42:43;1.30;99.90
44166;DHT22;30476;53.468;9.826;2024-01-06T15:45:09;1.30;99.90
44166;DHT22;30476;53.468;9.826;2024-01-06T15:47:37;1.30;99.90